sensor_id;sensor_type;location;lat;lon;timestamp;temperature;humidity
56542;DHT22;42438;53.174;6.730;2024-01-30T00:00:58;6.00;1.00
56542;DHT22;42438;53.174;6.730;2024-01-30T00:03:28;5.30;1.00
56542;DHT22;42438;53.174;6.730;2024-01-30T00:06:00;5.80;23.70
56542;DHT22;42438;53.174;6.730;2024-01-30T00:08:31;5.90;69.70
56542;DHT22;42438;53.174;6.730;2024-01-30T00:11:01;5.60;92.70
56542;DHT22;42438;53.174;6.730;2024-01-30T00:13:32;5.30;99.90
56542;DHT22;42438;53.174;6.730;2024-01-30T00:16:03;5.00;99.90
56542;DHT22;42438;53.174;6.730;2024-01-30T00:18:34;5.00;99.90
56542;DHT22;42438;53.174;6.730;2024-01-30T00:21:05;5.70;99.90
56542;DHT22;42438;53.174;6.730;2024-01-30T00:23:35;6.10;99.90
56542;DHT22;42438;53.174;6.730;2024-01-30T00:26:06;5.50;99.90
56542;DHT22;42438;53.174;6.730;2024-01-30T00:28:37;5.20;99.90
56542;DHT22;42438;53.174;6.730;2024-01-30T00:31:08;5.10;99.90
56542;DHT22;42438;53.174;6.730;2024-01-30T00:33:42;6.60;99.90
56542;DHT22;42438;53.174;6.730;2024-01-30T00:36:13;5.50;99.90
56542;DHT22;42438;53.174;6.730;2024-01-30T00:38:44;5.60;99.90
56542;DHT22;42438;53.174;6.730;2024-01-30T00:41:17;5.80;99.90
56542;DHT22;42438;53.174;6.730;2024-01-30T00:43:49;5.80;99.90
56542;DHT22;42438;53.174;6.730;2024-01-30T00:46:20;5.80;99.90
56542;DHT22;42438;53.174;6.730;2024-01-30T00:48:50;5.20;99.90
56542;DHT22;42438;53.174;6.730;2024-01-30T00:51:21;5.70;99.90
56542;DHT22;42438;53.174;6.730;2024-01-30T00:53:51;5.60;99.90
56542;DHT22;42438;53.174;6.730;2024-01-30T00:56:22;6.20;99.90
56542;DHT22;42438;53.174;6.730;2024-01-30T00:58:54;5.60;99.90
56542;DHT22;42438;53.174;6.730;2024-01-30T01:01:25;5.10;99.90
56542;DHT22;42438;53.174;6.730;2024-01-30T01:03:55;5.70;99.90
56542;DHT22;42438;53.174;6.730;2024-01-30T01:06:26;5.70;99.90
56542;DHT22;42438;53.174;6.730;2024-01-30T01:08:57;6.60;99.90
56542;DHT22;42438;53.174;6.730;2024-01-30T01:11:27;5.80;1.00
56542;DHT22;42438;53.174;6.730;2024-01-30T01:13:58;5.80;1.00
56542;DHT22;42438;53.174;6.730;2024-01-30T01:16:29;6.50;1.00
56542;DHT22;42438;53.174;6.730;2024-01-30T01:18:59;5.20;1.00
56542;DHT22;42438;53.174;6.730;2024-01-30T01:21:30;5.50;1.00
56542;DHT22;42438;53.174;6.730;2024-01-30T01:24:01;6.30;1.00
56542;DHT22;42438;53.174;6.730;2024-01-30T01:26:31;5.40;1.00
56542;DHT22;42438;53.174;6.730;2024-01-30T01:29:02;5.40;1.00
56542;DHT22;42438;53.174;6.730;2024-01-30T01:31:40;5.80;1.00
56542;DHT22;42438;53.174;6.730;2024-01-30T01:34:13;5.30;1.00
56542;DHT22;42438;53.174;6.730;2024-01-30T01:36:44;5.20;1.00
56542;DHT22;42438;53.174;6.730;2024-01-30T01:39:15;6.00;1.00
56542;DHT22;42438;53.174;6.730;2024-01-30T01:41:46;6.20;1.00
56542;DHT22;42438;53.174;6.730;2024-01-30T01:44:18;5.50;1.00
56542;DHT22;42438;53.174;6.730;2024-01-30T01:46:49;5.30;1.00
56542;DHT22;42438;53.174;6.730;2024-01-30T01:49:20;6.00;1.00
56542;DHT22;42438;53.174;6.730;2024-01-30T01:51:54;5.60;1.00
56542;DHT22;42438;53.174;6.730;2024-01-30T01:54:25;5.20;1.00
56542;DHT22;42438;53.174;6.730;2024-01-30T01:56:57;5.30;1.00
56542;DHT22;42438;53.174;6.730;2024-01-30T01:59:28;5.40;1.00
56542;DHT22;42438;53.174;6.730;2024-01-30T02:01:58;5.60;1.00
56542;DHT22;42438;53.174;6.730;2024-01-30T02:04:29;5.60;1.00
56542;DHT22;42438;53.174;6.730;2024-01-30T02:07:00;6.60;1.00
56542;DHT22;42438;53.174;6.730;2024-01-30T02:09:31;5.90;1.00
56542;DHT22;42438;53.174;6.730;2024-01-30T02:12:02;5.60;1.00
56542;DHT22;42438;53.174;6.730;2024-01-30T02:14:32;5.30;1.00
56542;DHT22;42438;53.174;6.730;2024-01-30T02:17:03;5.60;1.00
56542;DHT22;42438;53.174;6.730;2024-01-30T02:19:34;5.40;1.00
56542;DHT22;42438;53.174;6.730;2024-01-30T02:22:04;5.60;1.00
56542;DHT22;42438;53.174;6.730;2024-01-30T02:24:35;5.00;1.00
56542;DHT22;42438;53.174;6.730;2024-01-30T02:27:06;5.60;1.00
56542;DHT22;42438;53.174;6.730;2024-01-30T02:29:37;5.30;1.00
56542;DHT22;42438;53.174;6.730;2024-01-30T02:32:07;5.60;1.00
56542;DHT22;42438;53.174;6.730;2024-01-30T02:34:38;6.20;1.00
56542;DHT22;42438;53.174;6.730;2024-01-30T02:37:09;5.40;1.00
56542;DHT22;42438;53.174;6.730;2024-01-30T02:39:39;5.40;1.00
56542;DHT22;42438;53.174;6.730;2024-01-30T02:42:10;5.40;1.00
56542;DHT22;42438;53.174;6.730;2024-01-30T02:44:41;5.80;1.00
56542;DHT22;42438;53.174;6.730;2024-01-30T02:47:11;5.40;1.00
56542;DHT22;42438;53.174;6.730;2024-01-30T02:49:42;5.60;1.00
56542;DHT22;42438;53.174;6.730;2024-01-30T02:52:12;5.30;1.00
56542;DHT22;42438;53.174;6.730;2024-01-30T02:54:43;5.40;1.00
56542;DHT22;42438;53.174;6.730;2024-01-30T02:57:14;5.80;1.00
56542;DHT22;42438;53.174;6.730;2024-01-30T02:59:44;5.50;1.00
56542;DHT22;42438;53.174;6.730;2024-01-30T03:02:15;5.80;1.00
56542;DHT22;42438;53.174;6.730;2024-01-30T03:04:46;5.50;1.00
56542;DHT22;42438;53.174;6.730;2024-01-30T03:07:17;6.00;1.00
56542;DHT22;42438;53.174;6.730;2024-01-30T03:09:47;5.20;1.00
56542;DHT22;42438;53.174;6.730;2024-01-30T03:12:18;5.20;1.00
56542;DHT22;42438;53.174;6.730;2024-01-30T03:14:49;6.30;1.00
56542;DHT22;42438;53.174;6.730;2024-01-30T03:17:20;5.80;1.00
56542;DHT22;42438;53.174;6.730;2024-01-30T03:19:51;5.30;1.00
56542;DHT22;42438;53.174;6.730;2024-01-30T03:22:21;5.60;1.00
56542;DHT22;42438;53.174;6.730;2024-01-30T03:24:52;5.20;2.00
56542;DHT22;42438;53.174;6.730;2024-01-30T03:27:22;5.80;10.90
56542;DHT22;42438;53.174;6.730;2024-01-30T03:29:53;6.20;17.50
56542;DHT22;42438;53.174;6.730;2024-01-30T03:32:24;5.80;17.50
56542;DHT22;42438;53.174;6.730;2024-01-30T03:34:54;6.50;18.90
56542;DHT22;42438;53.174;6.730;2024-01-30T03:37:25;5.80;20.30
56542;DHT22;42438;53.174;6.730;2024-01-30T03:39:56;5.40;20.50
56542;DHT22;42438;53.174;6.730;2024-01-30T03:42:26;5.80;20.40
56542;DHT22;42438;53.174;6.730;2024-01-30T03:44:57;6.00;19.20
56542;DHT22;42438;53.174;6.730;2024-01-30T03:47:28;5.50;21.40
56542;DHT22;42438;53.174;6.730;2024-01-30T03:49:58;5.50;21.00
56542;DHT22;42438;53.174;6.730;2024-01-30T03:52:30;6.10;21.90
56542;DHT22;42438;53.174;6.730;2024-01-30T03:55:00;6.20;21.90
56542;DHT22;42438;53.174;6.730;2024-01-30T03:57:31;5.20;17.90
56542;DHT22;42438;53.174;6.730;2024-01-30T04:00:02;5.70;16.20
56542;DHT22;42438;53.174;6.730;2024-01-30T04:02:35;5.60;13.60
56542;DHT22;42438;53.174;6.730;2024-01-30T04:05:06;5.10;13.80
56542;DHT22;42438;53.174;6.730;2024-01-30T04:07:36;5.30;15.20
56542;DHT22;42438;53.174;6.730;2024-01-30T04:10:08;5.30;22.30
56542;DHT22;42438;53.174;6.730;2024-01-30T04:12:38;5.30;34.20
56542;DHT22;42438;53.174;6.730;2024-01-30T04:15:09;5.00;41.90
56542;DHT22;42438;53.174;6.730;2024-01-30T04:17:40;5.50;47.00
56542;DHT22;42438;53.174;6.730;2024-01-30T04:20:17;5.30;61.20
56542;DHT22;42438;53.174;6.730;2024-01-30T04:22:47;5.60;71.70
56542;DHT22;42438;53.174;6.730;2024-01-30T04:25:18;5.70;77.40
56542;DHT22;42438;53.174;6.730;2024-01-30T04:27:49;6.30;86.80
56542;DHT22;42438;53.174;6.730;2024-01-30T04:30:20;5.40;90.90
56542;DHT22;42438;53.174;6.730;2024-01-30T04:32:50;5.60;93.60
56542;DHT22;42438;53.174;6.730;2024-01-30T04:35:21;5.50;95.20
56542;DHT22;42438;53.174;6.730;2024-01-30T04:37:55;5.60;97.20
56542;DHT22;42438;53.174;6.730;2024-01-30T04:40:25;6.50;99.80
56542;DHT22;42438;53.174;6.730;2024-01-30T04:42:56;6.00;99.90
56542;DHT22;42438;53.174;6.730;2024-01-30T04:45:27;6.10;99.50
56542;DHT22;42438;53.174;6.730;2024-01-30T04:47:57;6.50;99.90
56542;DHT22;42438;53.174;6.730;2024-01-30T04:50:28;6.60;99.90
56542;DHT22;42438;53.174;6.730;2024-01-30T04:52:59;6.40;99.90
56542;DHT22;42438;53.174;6.730;2024-01-30T04:55:29;5.90;99.90
56542;DHT22;42438;53.174;6.730;2024-01-30T04:58:00;6.30;98.10
56542;DHT22;42438;53.174;6.730;2024-01-30T05:00:30;6.40;96.60
56542;DHT22;42438;53.174;6.730;2024-01-30T05:03:01;5.80;95.90
56542;DHT22;42438;53.174;6.730;2024-01-30T05:05:32;5.90;97.60
56542;DHT22;42438;53.174;6.730;2024-01-30T05:08:03;7.50;98.50
56542;DHT22;42438;53.174;6.730;2024-01-30T05:10:33;6.00;99.90
56542;DHT22;42438;53.174;6.730;2024-01-30T05:13:04;5.90;99.90
56542;DHT22;42438;53.174;6.730;2024-01-30T05:15:35;6.50;99.90
56542;DHT22;42438;53.174;6.730;2024-01-30T05:18:05;6.60;99.90
56542;DHT22;42438;53.174;6.730;2024-01-30T05:20:36;6.70;99.90
56542;DHT22;42438;53.174;6.730;2024-01-30T05:23:06;6.80;99.90
56542;DHT22;42438;53.174;6.730;2024-01-30T05:25:37;6.30;99.90
56542;DHT22;42438;53.174;6.730;2024-01-30T05:28:08;6.30;99.90
56542;DHT22;42438;53.174;6.730;2024-01-30T05:30:38;6.90;99.90
56542;DHT22;42438;53.174;6.730;2024-01-30T05:33:09;6.40;99.90
56542;DHT22;42438;53.174;6.730;2024-01-30T05:35:40;6.30;99.90
56542;DHT22;42438;53.174;6.730;2024-01-30T05:38:11;6.50;99.90
56542;DHT22;42438;53.174;6.730;2024-01-30T05:40:42;6.50;99.90
56542;DHT22;42438;53.174;6.730;2024-01-30T05:43:13;7.00;99.90
56542;DHT22;42438;53.174;6.730;2024-01-30T05:45:44;6.40;99.90
56542;DHT22;42438;53.174;6.730;2024-01-30T05:48:14;6.90;99.90
56542;DHT22;42438;53.174;6.730;2024-01-30T05:50:45;6.50;99.90
56542;DHT22;42438;53.174;6.730;2024-01-30T05:53:16;6.50;99.90
56542;DHT22;42438;53.174;6.730;2024-01-30T05:55:47;7.10;99.60
56542;DHT22;42438;53.174;6.730;2024-01-30T05:58:17;6.90;96.60
56542;DHT22;42438;53.174;6.730;2024-01-30T06:00:48;6.70;93.70
56542;DHT22;42438;53.174;6.730;2024-01-30T06:03:19;6.50;92.10
56542;DHT22;42438;53.174;6.730;2024-01-30T06:05:49;7.00;90.90
56542;DHT22;42438;53.174;6.730;2024-01-30T06:08:20;6.90;91.70
56542;DHT22;42438;53.174;6.730;2024-01-30T06:10:51;7.20;91.30
56542;DHT22;42438;53.174;6.730;2024-01-30T06:13:22;6.70;90.60
56542;DHT22;42438;53.174;6.730;2024-01-30T06:15:53;7.00;89.00
56542;DHT22;42438;53.174;6.730;2024-01-30T06:18:23;6.70;86.70
56542;DHT22;42438;53.174;6.730;2024-01-30T06:20:54;7.20;83.70
56542;DHT22;42438;53.174;6.730;2024-01-30T06:23:25;6.70;78.60
56542;DHT22;42438;53.174;6.730;2024-01-30T06:25:55;7.20;75.10
56542;DHT22;42438;53.174;6.730;2024-01-30T06:28:26;7.40;73.30
56542;DHT22;42438;53.174;6.730;2024-01-30T06:30:57;7.40;67.80
56542;DHT22;42438;53.174;6.730;2024-01-30T06:33:27;7.30;63.40
56542;DHT22;42438;53.174;6.730;2024-01-30T06:35:58;7.40;63.30
56542;DHT22;42438;53.174;6.730;2024-01-30T06:38:28;7.40;57.30
56542;DHT22;42438;53.174;6.730;2024-01-30T06:40:59;7.00;50.00
56542;DHT22;42438;53.174;6.730;2024-01-30T06:43:30;7.40;43.50
56542;DHT22;42438;53.174;6.730;2024-01-30T06:46:00;7.30;35.40
56542;DHT22;42438;53.174;6.730;2024-01-30T06:48:31;7.00;26.40
56542;DHT22;42438;53.174;6.730;2024-01-30T06:51:02;7.50;19.80
56542;DHT22;42438;53.174;6.730;2024-01-30T06:53:32;7.00;13.30
56542;DHT22;42438;53.174;6.730;2024-01-30T06:56:03;7.00;7.60
56542;DHT22;42438;53.174;6.730;2024-01-30T06:58:34;7.00;3.60
56542;DHT22;42438;53.174;6.730;2024-01-30T07:01:04;7.40;1.00
56542;DHT22;42438;53.174;6.730;2024-01-30T07:03:35;7.50;1.00
56542;DHT22;42438;53.174;6.730;2024-01-30T07:06:06;7.40;1.00
56542;DHT22;42438;53.174;6.730;2024-01-30T07:08:37;7.60;1.00
56542;DHT22;42438;53.174;6.730;2024-01-30T07:11:09;7.70;1.00
56542;DHT22;42438;53.174;6.730;2024-01-30T07:13:39;7.10;1.00
56542;DHT22;42438;53.174;6.730;2024-01-30T07:16:10;7.60;1.00
56542;DHT22;42438;53.174;6.730;2024-01-30T07:18:41;7.70;1.00
56542;DHT22;42438;53.174;6.730;2024-01-30T07:21:12;7.30;1.00
56542;DHT22;42438;53.174;6.730;2024-01-30T07:23:43;7.50;1.00
56542;DHT22;42438;53.174;6.730;2024-01-30T07:26:13;7.20;1.00
56542;DHT22;42438;53.174;6.730;2024-01-30T07:28:44;7.50;1.00
56542;DHT22;42438;53.174;6.730;2024-01-30T07:31:15;7.10;1.00
56542;DHT22;42438;53.174;6.730;2024-01-30T07:33:45;7.80;1.00
56542;DHT22;42438;53.174;6.730;2024-01-30T07:36:16;7.50;1.00
56542;DHT22;42438;53.174;6.730;2024-01-30T07:38:47;7.60;1.00
56542;DHT22;42438;53.174;6.730;2024-01-30T07:41:17;7.30;1.00
56542;DHT22;42438;53.174;6.730;2024-01-30T07:43:48;7.30;1.00
56542;DHT22;42438;53.174;6.730;2024-01-30T07:46:18;7.30;1.00
56542;DHT22;42438;53.174;6.730;2024-01-30T07:48:49;7.80;1.00
56542;DHT22;42438;53.174;6.730;2024-01-30T07:51:24;7.50;1.00
56542;DHT22;42438;53.174;6.730;2024-01-30T07:53:57;7.80;1.00
56542;DHT22;42438;53.174;6.730;2024-01-30T07:56:28;7.80;1.00
56542;DHT22;42438;53.174;6.730;2024-01-30T07:58:59;7.70;1.00
56542;DHT22;42438;53.174;6.730;2024-01-30T08:01:29;7.30;1.00
56542;DHT22;42438;53.174;6.730;2024-01-30T08:04:00;7.80;1.00
56542;DHT22;42438;53.174;6.730;2024-01-30T08:06:31;7.60;1.00
56542;DHT22;42438;53.174;6.730;2024-01-30T08:09:01;7.50;1.00
56542;DHT22;42438;53.174;6.730;2024-01-30T08:11:32;7.40;1.00
56542;DHT22;42438;53.174;6.730;2024-01-30T08:14:03;7.90;1.00
56542;DHT22;42438;53.174;6.730;2024-01-30T08:16:34;7.50;1.00
56542;DHT22;42438;53.174;6.730;2024-01-30T08:19:04;7.70;1.00
56542;DHT22;42438;53.174;6.730;2024-01-30T08:21:35;7.50;1.00
56542;DHT22;42438;53.174;6.730;2024-01-30T08:24:07;7.90;1.00
56542;DHT22;42438;53.174;6.730;2024-01-30T08:26:37;7.40;1.00
56542;DHT22;42438;53.174;6.730;2024-01-30T08:29:09;7.60;1.00
56542;DHT22;42438;53.174;6.730;2024-01-30T08:31:39;7.60;1.00
56542;DHT22;42438;53.174;6.730;2024-01-30T08:34:10;7.60;1.00
56542;DHT22;42438;53.174;6.730;2024-01-30T08:36:41;7.80;1.00
56542;DHT22;42438;53.174;6.730;2024-01-30T08:39:11;7.60;1.00
56542;DHT22;42438;53.174;6.730;2024-01-30T08:41:42;8.10;1.00
56542;DHT22;42438;53.174;6.730;2024-01-30T08:44:13;7.70;1.00
56542;DHT22;42438;53.174;6.730;2024-01-30T08:46:47;7.70;1.00
56542;DHT22;42438;53.174;6.730;2024-01-30T08:49:17;7.80;1.00
56542;DHT22;42438;53.174;6.730;2024-01-30T08:51:48;7.70;1.00
56542;DHT22;42438;53.174;6.730;2024-01-30T08:54:19;8.20;1.00
56542;DHT22;42438;53.174;6.730;2024-01-30T08:56:49;7.80;1.00
56542;DHT22;42438;53.174;6.730;2024-01-30T08:59:20;8.50;1.00
56542;DHT22;42438;53.174;6.730;2024-01-30T09:01:51;7.90;1.00
56542;DHT22;42438;53.174;6.730;2024-01-30T09:04:25;8.40;1.00
56542;DHT22;42438;53.174;6.730;2024-01-30T09:06:55;8.30;1.00
56542;DHT22;42438;53.174;6.730;2024-01-30T09:09:26;8.10;1.00
56542;DHT22;42438;53.174;6.730;2024-01-30T09:11:57;8.20;1.00
56542;DHT22;42438;53.174;6.730;2024-01-30T09:14:32;8.60;1.00
56542;DHT22;42438;53.174;6.730;2024-01-30T09:17:03;8.50;99.90
56542;DHT22;42438;53.174;6.730;2024-01-30T09:19:34;8.70;99.90
56542;DHT22;42438;53.174;6.730;2024-01-30T09:22:04;8.40;99.90
56542;DHT22;42438;53.174;6.730;2024-01-30T09:24:35;8.90;99.90
56542;DHT22;42438;53.174;6.730;2024-01-30T09:27:06;8.60;99.90
56542;DHT22;42438;53.174;6.730;2024-01-30T09:29:36;8.50;99.90
56542;DHT22;42438;53.174;6.730;2024-01-30T09:32:07;8.70;99.90
56542;DHT22;42438;53.174;6.730;2024-01-30T09:34:39;8.70;99.90
56542;DHT22;42438;53.174;6.730;2024-01-30T09:37:10;8.90;99.90
56542;DHT22;42438;53.174;6.730;2024-01-30T09:39:41;8.90;92.30
56542;DHT22;42438;53.174;6.730;2024-01-30T09:42:34;8.90;6.00
56542;DHT22;42438;53.174;6.730;2024-01-30T09:45:09;8.90;1.00
56542;DHT22;42438;53.174;6.730;2024-01-30T09:47:43;9.30;1.00
56542;DHT22;42438;53.174;6.730;2024-01-30T09:50:15;9.10;1.00
56542;DHT22;42438;53.174;6.730;2024-01-30T09:52:47;9.50;99.90
56542;DHT22;42438;53.174;6.730;2024-01-30T09:55:18;9.20;99.90
56542;DHT22;42438;53.174;6.730;2024-01-30T09:57:48;9.30;1.00
56542;DHT22;42438;53.174;6.730;2024-01-30T10:00:19;9.90;99.90
56542;DHT22;42438;53.174;6.730;2024-01-30T10:02:50;9.50;99.90
56542;DHT22;42438;53.174;6.730;2024-01-30T10:05:26;9.70;99.90
56542;DHT22;42438;53.174;6.730;2024-01-30T10:07:57;10.20;1.00
56542;DHT22;42438;53.174;6.730;2024-01-30T10:10:29;9.90;99.90
56542;DHT22;42438;53.174;6.730;2024-01-30T10:13:00;10.20;99.90
56542;DHT22;42438;53.174;6.730;2024-01-30T10:15:31;9.90;1.00
56542;DHT22;42438;53.174;6.730;2024-01-30T10:18:01;10.10;99.90
56542;DHT22;42438;53.174;6.730;2024-01-30T10:20:33;10.20;99.90
56542;DHT22;42438;53.174;6.730;2024-01-30T10:23:04;10.10;1.00
56542;DHT22;42438;53.174;6.730;2024-01-30T10:25:35;10.40;1.00
56542;DHT22;42438;53.174;6.730;2024-01-30T10:28:06;9.80;1.00
56542;DHT22;42438;53.174;6.730;2024-01-30T10:30:37;9.90;1.00
56542;DHT22;42438;53.174;6.730;2024-01-30T10:33:07;10.30;1.00
56542;DHT22;42438;53.174;6.730;2024-01-30T10:35:38;10.20;99.90
56542;DHT22;42438;53.174;6.730;2024-01-30T10:38:10;10.00;99.90
56542;DHT22;42438;53.174;6.730;2024-01-30T10:40:43;10.40;28.40
56542;DHT22;42438;53.174;6.730;2024-01-30T10:43:17;10.00;1.00
56542;DHT22;42438;53.174;6.730;2024-01-30T10:45:51;10.00;1.00
56542;DHT22;42438;53.174;6.730;2024-01-30T10:48:29;10.00;1.00
56542;DHT22;42438;53.174;6.730;2024-01-30T10:51:02;10.10;1.00
56542;DHT22;42438;53.174;6.730;2024-01-30T10:53:34;10.20;1.00
56542;DHT22;42438;53.174;6.730;2024-01-30T10:56:06;10.50;1.00
56542;DHT22;42438;53.174;6.730;2024-01-30T10:58:37;10.20;1.00
56542;DHT22;42438;53.174;6.730;2024-01-30T11:01:09;10.00;1.00
56542;DHT22;42438;53.174;6.730;2024-01-30T11:03:40;10.20;1.00
56542;DHT22;42438;53.174;6.730;2024-01-30T11:06:11;9.90;27.60
56542;DHT22;42438;53.174;6.730;2024-01-30T11:08:45;10.00;99.90
56542;DHT22;42438;53.174;6.730;2024-01-30T11:11:16;10.20;99.90
56542;DHT22;42438;53.174;6.730;2024-01-30T11:13:50;10.40;99.90
56542;DHT22;42438;53.174;6.730;2024-01-30T11:16:20;10.20;99.90
56542;DHT22;42438;53.174;6.730;2024-01-30T11:18:51;10.40;99.90
56542;DHT22;42438;53.174;6.730;2024-01-30T11:21:25;10.50;99.90
56542;DHT22;42438;53.174;6.730;2024-01-30T11:23:55;10.50;99.90
56542;DHT22;42438;53.174;6.730;2024-01-30T11:26:31;10.30;99.90
56542;DHT22;42438;53.174;6.730;2024-01-30T11:29:07;10.10;99.90
56542;DHT22;42438;53.174;6.730;2024-01-30T11:31:38;10.10;99.90
56542;DHT22;42438;53.174;6.730;2024-01-30T11:34:09;10.70;99.90
56542;DHT22;42438;53.174;6.730;2024-01-30T11:36:43;10.50;99.90
56542;DHT22;42438;53.174;6.730;2024-01-30T11:39:14;10.10;1.00
56542;DHT22;42438;53.174;6.730;2024-01-30T11:41:49;10.10;99.90
56542;DHT22;42438;53.174;6.730;2024-01-30T11:44:21;10.60;99.90
56542;DHT22;42438;53.174;6.730;2024-01-30T11:46:52;10.20;99.90
56542;DHT22;42438;53.174;6.730;2024-01-30T11:49:23;10.60;99.90
56542;DHT22;42438;53.174;6.730;2024-01-30T11:51:54;10.30;99.90
56542;DHT22;42438;53.174;6.730;2024-01-30T11:54:25;10.30;99.90
56542;DHT22;42438;53.174;6.730;2024-01-30T11:56:55;10.10;99.90
56542;DHT22;42438;53.174;6.730;2024-01-30T11:59:26;10.10;99.90
56542;DHT22;42438;53.174;6.730;2024-01-30T12:01:57;10.40;99.90
56542;DHT22;42438;53.174;6.730;2024-01-30T12:04:28;10.40;1.00
56542;DHT22;42438;53.174;6.730;2024-01-30T12:07:00;10.20;99.90
56542;DHT22;42438;53.174;6.730;2024-01-30T12:09:30;10.10;99.90
56542;DHT22;42438;53.174;6.730;2024-01-30T12:12:01;10.20;1.00
56542;DHT22;42438;53.174;6.730;2024-01-30T12:14:32;10.20;1.00
56542;DHT22;42438;53.174;6.730;2024-01-30T12:17:03;10.10;1.00
56542;DHT22;42438;53.174;6.730;2024-01-30T12:19:33;9.90;1.00
56542;DHT22;42438;53.174;6.730;2024-01-30T12:22:04;9.70;99.90
56542;DHT22;42438;53.174;6.730;2024-01-30T12:24:35;9.60;99.90
56542;DHT22;42438;53.174;6.730;2024-01-30T12:27:05;10.10;99.90
56542;DHT22;42438;53.174;6.730;2024-01-30T12:29:36;10.00;99.90
56542;DHT22;42438;53.174;6.730;2024-01-30T12:32:07;10.00;99.90
56542;DHT22;42438;53.174;6.730;2024-01-30T12:34:41;9.60;99.90
56542;DHT22;42438;53.174;6.730;2024-01-30T12:37:12;10.00;99.90
56542;DHT22;42438;53.174;6.730;2024-01-30T12:39:44;9.80;99.90
56542;DHT22;42438;53.174;6.730;2024-01-30T12:42:14;9.90;99.90
56542;DHT22;42438;53.174;6.730;2024-01-30T12:44:45;10.50;1.00
56542;DHT22;42438;53.174;6.730;2024-01-30T12:47:16;10.40;1.00
56542;DHT22;42438;53.174;6.730;2024-01-30T12:49:47;10.30;1.00
56542;DHT22;42438;53.174;6.730;2024-01-30T12:52:18;10.30;1.00
56542;DHT22;42438;53.174;6.730;2024-01-30T12:54:49;9.90;1.00
56542;DHT22;42438;53.174;6.730;2024-01-30T12:57:20;10.00;99.90
56542;DHT22;42438;53.174;6.730;2024-01-30T12:59:50;10.30;99.90
56542;DHT22;42438;53.174;6.730;2024-01-30T13:02:21;10.40;99.90
56542;DHT22;42438;53.174;6.730;2024-01-30T13:04:53;9.90;99.90
56542;DHT22;42438;53.174;6.730;2024-01-30T13:07:24;10.20;99.90
56542;DHT22;42438;53.174;6.730;2024-01-30T13:09:56;10.10;99.90
56542;DHT22;42438;53.174;6.730;2024-01-30T13:12:26;9.80;99.90
56542;DHT22;42438;53.174;6.730;2024-01-30T13:14:59;10.20;99.90
56542;DHT22;42438;53.174;6.730;2024-01-30T13:17:31;9.60;99.90
56542;DHT22;42438;53.174;6.730;2024-01-30T13:20:02;10.10;99.90
56542;DHT22;42438;53.174;6.730;2024-01-30T13:22:34;9.70;99.90
56542;DHT22;42438;53.174;6.730;2024-01-30T13:25:05;9.50;99.90
56542;DHT22;42438;53.174;6.730;2024-01-30T13:27:37;10.10;99.90
56542;DHT22;42438;53.174;6.730;2024-01-30T13:30:08;10.10;99.90
56542;DHT22;42438;53.174;6.730;2024-01-30T13:32:39;9.60;99.90
56542;DHT22;42438;53.174;6.730;2024-01-30T13:35:11;9.70;99.90
56542;DHT22;42438;53.174;6.730;2024-01-30T13:37:42;10.00;99.90
56542;DHT22;42438;53.174;6.730;2024-01-30T13:40:13;9.70;99.90
56542;DHT22;42438;53.174;6.730;2024-01-30T13:42:44;9.80;99.90
56542;DHT22;42438;53.174;6.730;2024-01-30T13:45:15;9.70;99.90
56542;DHT22;42438;53.174;6.730;2024-01-30T13:47:46;9.60;99.90
56542;DHT22;42438;53.174;6.730;2024-01-30T13:50:16;10.10;99.90
56542;DHT22;42438;53.174;6.730;2024-01-30T13:52:47;9.70;99.90
56542;DHT22;42438;53.174;6.730;2024-01-30T13:55:17;10.00;99.90
56542;DHT22;42438;53.174;6.730;2024-01-30T13:57:48;9.90;99.90
56542;DHT22;42438;53.174;6.730;2024-01-30T14:00:19;9.70;99.90
56542;DHT22;42438;53.174;6.730;2024-01-30T14:02:52;9.60;99.90
56542;DHT22;42438;53.174;6.730;2024-01-30T14:05:28;9.90;99.90
56542;DHT22;42438;53.174;6.730;2024-01-30T14:07:59;9.90;99.90
56542;DHT22;42438;53.174;6.730;2024-01-30T14:10:30;9.60;99.90
56542;DHT22;42438;53.174;6.730;2024-01-30T14:13:01;9.90;99.90
56542;DHT22;42438;53.174;6.730;2024-01-30T14:15:32;9.30;99.90
56542;DHT22;42438;53.174;6.730;2024-01-30T14:18:02;9.90;99.90
56542;DHT22;42438;53.174;6.730;2024-01-30T14:20:33;9.80;1.00
56542;DHT22;42438;53.174;6.730;2024-01-30T14:23:04;9.30;1.00
56542;DHT22;42438;53.174;6.730;2024-01-30T14:25:34;9.70;1.00
56542;DHT22;42438;53.174;6.730;2024-01-30T14:28:05;9.30;1.00
56542;DHT22;42438;53.174;6.730;2024-01-30T14:30:36;9.30;1.00
56542;DHT22;42438;53.174;6.730;2024-01-30T14:33:07;9.50;1.00
56542;DHT22;42438;53.174;6.730;2024-01-30T14:35:37;9.70;77.50
56542;DHT22;42438;53.174;6.730;2024-01-30T14:38:08;9.30;99.90
56542;DHT22;42438;53.174;6.730;2024-01-30T14:40:41;9.70;1.00
56542;DHT22;42438;53.174;6.730;2024-01-30T14:43:11;9.10;99.90
56542;DHT22;42438;53.174;6.730;2024-01-30T14:45:42;9.00;1.00
56542;DHT22;42438;53.174;6.730;2024-01-30T14:48:14;8.90;1.00
56542;DHT22;42438;53.174;6.730;2024-01-30T14:50:45;8.90;99.90
56542;DHT22;42438;53.174;6.730;2024-01-30T14:53:16;8.80;99.90
56542;DHT22;42438;53.174;6.730;2024-01-30T14:55:48;9.40;99.90
56542;DHT22;42438;53.174;6.730;2024-01-30T14:58:19;9.20;1.00
56542;DHT22;42438;53.174;6.730;2024-01-30T15:00:49;9.30;1.00
56542;DHT22;42438;53.174;6.730;2024-01-30T15:03:20;9.30;99.90
56542;DHT22;42438;53.174;6.730;2024-01-30T15:05:51;9.20;1.00
56542;DHT22;42438;53.174;6.730;2024-01-30T15:08:21;8.60;61.90
56542;DHT22;42438;53.174;6.730;2024-01-30T15:10:52;9.00;96.20
56542;DHT22;42438;53.174;6.730;2024-01-30T15:13:24;9.00;99.90
56542;DHT22;42438;53.174;6.730;2024-01-30T15:15:54;8.40;99.90
56542;DHT22;42438;53.174;6.730;2024-01-30T15:18:25;9.00;1.00
56542;DHT22;42438;53.174;6.730;2024-01-30T15:20:55;8.60;1.00
56542;DHT22;42438;53.174;6.730;2024-01-30T15:23:26;9.00;1.00
56542;DHT22;42438;53.174;6.730;2024-01-30T15:25:57;8.20;1.00
56542;DHT22;42438;53.174;6.730;2024-01-30T15:28:38;8.20;1.00
56542;DHT22;42438;53.174;6.730;2024-01-30T15:31:08;8.20;1.00
56542;DHT22;42438;53.174;6.730;2024-01-30T15:33:39;8.20;1.00
56542;DHT22;42438;53.174;6.730;2024-01-30T15:36:11;8.90;19.20
56542;DHT22;42438;53.174;6.730;2024-01-30T15:38:43;8.10;41.70
56542;DHT22;42438;53.174;6.730;2024-01-30T15:41:14;8.20;49.00
56542;DHT22;42438;53.174;6.730;2024-01-30T15:43:45;8.50;71.70
56542;DHT22;42438;53.174;6.730;2024-01-30T15:46:15;8.70;88.40
56542;DHT22;42438;53.174;6.730;2024-01-30T15:48:46;8.10;92.90
56542;DHT22;42438;53.174;6.730;2024-01-30T15:51:17;8.80;99.90
56542;DHT22;42438;53.174;6.730;2024-01-30T15:53:49;8.10;99.90
56542;DHT22;42438;53.174;6.730;2024-01-30T15:56:21;8.70;99.90
56542;DHT22;42438;53.174;6.730;2024-01-30T15:58:51;8.20;99.90
56542;DHT22;42438;53.174;6.730;2024-01-30T16:01:22;8.20;99.90
56542;DHT22;42438;53.174;6.730;2024-01-30T16:03:53;8.70;99.90
56542;DHT22;42438;53.174;6.730;2024-01-30T16:06:24;8.20;99.90
56542;DHT22;42438;53.174;6.730;2024-01-30T16:08:54;8.50;99.90
56542;DHT22;42438;53.174;6.730;2024-01-30T16:11:25;8.50;99.90
56542;DHT22;42438;53.174;6.730;2024-01-30T16:13:56;8.50;99.90